sensor_id;sensor_type;location;lat;lon;timestamp;pressure;altitude;pressure_sealevel;temperature;humidity
35649;BME280;21768;48.562;13.414;2023-11-21T00:01:04;96859.03;;;6.85;73.02
35649;BME280;21768;48.562;13.414;2023-11-21T00:03:49;96850.97;;;6.89;73.05
35649;BME280;21768;48.562;13.414;2023-11-21T00:06:33;96856.28;;;6.93;72.91
35649;BME280;21768;48.562;13.414;2023-11-21T00:09:18;96854.97;;;6.98;72.91
35649;BME280;21768;48.562;13.414;2023-11-21T00:12:03;96848.31;;;6.99;72.79
35649;BME280;21768;48.562;13.414;2023-11-21T00:14:48;96854.75;;;6.95;72.71
35649;BME280;21768;48.562;13.414;2023-11-21T00:17:32;96832.78;;;6.91;72.52
35649;BME280;21768;48.562;13.414;2023-11-21T00:20:16;96847.72;;;6.90;72.61
35649;BME280;21768;48.562;13.414;2023-11-21T00:23:00;96850.75;;;6.86;72.57
35649;BME280;21768;48.562;13.414;2023-11-21T00:25:44;96844.66;;;6.82;72.30
35649;BME280;21768;48.562;13.414;2023-11-21T00:28:27;96840.63;;;6.84;72.55
35649;BME280;21768;48.562;13.414;2023-11-21T00:31:11;96839.88;;;6.85;72.47
35649;BME280;21768;48.562;13.414;2023-11-21T00:33:55;96837.56;;;6.88;72.61
35649;BME280;21768;48.562;13.414;2023-11-21T00:36:40;96836.44;;;6.96;72.46
35649;BME280;21768;48.562;13.414;2023-11-21T00:39:23;96833.16;;;6.97;72.47
35649;BME280;21768;48.562;13.414;2023-11-21T00:42:08;96837.31;;;6.97;72.51
35649;BME280;21768;48.562;13.414;2023-11-21T00:44:52;96825.88;;;7.00;72.31
35649;BME280;21768;48.562;13.414;2023-11-21T00:47:36;96840.25;;;7.03;72.41
35649;BME280;21768;48.562;13.414;2023-11-21T00:50:21;96825.09;;;7.01;72.46
35649;BME280;21768;48.562;13.414;2023-11-21T00:53:05;96834.69;;;6.95;72.60
35649;BME280;21768;48.562;13.414;2023-11-21T00:55:51;96841.81;;;6.89;72.59
35649;BME280;21768;48.562;13.414;2023-11-21T00:58:41;96853.38;;;6.87;72.64
35649;BME280;21768;48.562;13.414;2023-11-21T01:01:27;96848.16;;;6.84;72.47
35649;BME280;21768;48.562;13.414;2023-11-21T01:04:11;96854.56;;;6.80;72.56
35649;BME280;21768;48.562;13.414;2023-11-21T01:06:55;96855.34;;;6.79;72.56
35649;BME280;21768;48.562;13.414;2023-11-21T01:09:39;96851.97;;;6.79;72.47
35649;BME280;21768;48.562;13.414;2023-11-21T01:12:23;96850.53;;;6.71;72.60
35649;BME280;21768;48.562;13.414;2023-11-21T01:15:09;96849.47;;;6.67;72.75
35649;BME280;21768;48.562;13.414;2023-11-21T01:17:55;96837.50;;;6.63;72.75
35649;BME280;21768;48.562;13.414;2023-11-21T01:20:39;96832.38;;;6.62;72.82
35649;BME280;21768;48.562;13.414;2023-11-21T01:23:23;96847.06;;;6.57;72.80
35649;BME280;21768;48.562;13.414;2023-11-21T01:26:07;96843.38;;;6.52;72.81
35649;BME280;21768;48.562;13.414;2023-11-21T01:28:52;96849.91;;;6.50;72.81
35649;BME280;21768;48.562;13.414;2023-11-21T01:31:36;96849.25;;;6.53;72.81
35649;BME280;21768;48.562;13.414;2023-11-21T01:34:20;96849.38;;;6.54;72.71
35649;BME280;21768;48.562;13.414;2023-11-21T01:37:05;96841.41;;;6.60;72.78
35649;BME280;21768;48.562;13.414;2023-11-21T01:39:49;96827.09;;;6.70;72.73
35649;BME280;21768;48.562;13.414;2023-11-21T01:42:33;96825.81;;;6.75;72.46
35649;BME280;21768;48.562;13.414;2023-11-21T01:45:17;96823.63;;;6.80;72.49
35649;BME280;21768;48.562;13.414;2023-11-21T01:48:01;96828.84;;;6.83;72.59
35649;BME280;21768;48.562;13.414;2023-11-21T01:50:46;96831.91;;;6.91;72.54
35649;BME280;21768;48.562;13.414;2023-11-21T01:53:30;96826.19;;;6.93;72.50
35649;BME280;21768;48.562;13.414;2023-11-21T01:56:14;96830.44;;;6.94;72.67
35649;BME280;21768;48.562;13.414;2023-11-21T01:58:58;96830.66;;;6.97;72.69
35649;BME280;21768;48.562;13.414;2023-11-21T02:01:42;96829.13;;;6.99;72.54
35649;BME280;21768;48.562;13.414;2023-11-21T02:04:27;96836.97;;;7.04;72.55
35649;BME280;21768;48.562;13.414;2023-11-21T02:07:11;96836.44;;;7.08;72.54
35649;BME280;21768;48.562;13.414;2023-11-21T02:09:55;96837.63;;;7.13;72.44
35649;BME280;21768;48.562;13.414;2023-11-21T02:12:39;96832.81;;;7.16;72.56
35649;BME280;21768;48.562;13.414;2023-11-21T02:15:23;96822.69;;;7.14;72.38
35649;BME280;21768;48.562;13.414;2023-11-21T02:18:10;96820.94;;;7.13;72.73
35649;BME280;21768;48.562;13.414;2023-11-21T02:20:56;96827.91;;;7.18;72.68
35649;BME280;21768;48.562;13.414;2023-11-21T02:23:40;96819.50;;;7.17;72.74
35649;BME280;21768;48.562;13.414;2023-11-21T02:26:28;96828.69;;;7.16;72.59
35649;BME280;21768;48.562;13.414;2023-11-21T02:29:12;96830.41;;;7.18;72.52
35649;BME280;21768;48.562;13.414;2023-11-21T02:31:57;96809.38;;;7.15;72.58
35649;BME280;21768;48.562;13.414;2023-11-21T02:34:40;96827.81;;;7.16;72.65
35649;BME280;21768;48.562;13.414;2023-11-21T02:37:24;96813.91;;;7.21;72.50
35649;BME280;21768;48.562;13.414;2023-11-21T02:40:10;96811.28;;;7.20;72.49
35649;BME280;21768;48.562;13.414;2023-11-21T02:42:55;96807.25;;;7.22;72.50
35649;BME280;21768;48.562;13.414;2023-11-21T02:45:43;96804.63;;;7.20;72.56
35649;BME280;21768;48.562;13.414;2023-11-21T02:48:27;96805.72;;;7.24;72.59
35649;BME280;21768;48.562;13.414;2023-11-21T02:51:11;96808.78;;;7.20;72.74
35649;BME280;21768;48.562;13.414;2023-11-21T02:53:55;96805.72;;;7.24;72.69
35649;BME280;21768;48.562;13.414;2023-11-21T02:56:42;96808.75;;;7.31;72.57
35649;BME280;21768;48.562;13.414;2023-11-21T02:59:26;96805.47;;;7.32;72.61
35649;BME280;21768;48.562;13.414;2023-11-21T03:02:10;96802.31;;;7.35;72.61
35649;BME280;21768;48.562;13.414;2023-11-21T03:04:54;96798.28;;;7.37;72.47
35649;BME280;21768;48.562;13.414;2023-11-21T03:07:39;96805.03;;;7.38;72.54
35649;BME280;21768;48.562;13.414;2023-11-21T03:10:23;96802.53;;;7.38;72.67
35649;BME280;21768;48.562;13.414;2023-11-21T03:13:07;96809.19;;;7.37;72.45
35649;BME280;21768;48.562;13.414;2023-11-21T03:15:51;96808.09;;;7.34;72.63
35649;BME280;21768;48.562;13.414;2023-11-21T03:18:39;96810.59;;;7.34;72.58
35649;BME280;21768;48.562;13.414;2023-11-21T03:21:23;96793.59;;;7.30;72.59
35649;BME280;21768;48.562;13.414;2023-11-21T03:24:08;96794.38;;;7.29;72.74
35649;BME280;21768;48.562;13.414;2023-11-21T03:26:51;96802.00;;;7.30;72.78
35649;BME280;21768;48.562;13.414;2023-11-21T03:29:36;96791.09;;;7.30;72.64
35649;BME280;21768;48.562;13.414;2023-11-21T03:32:20;96791.84;;;7.29;72.80
35649;BME280;21768;48.562;13.414;2023-11-21T03:35:04;96797.09;;;7.32;72.74
35649;BME280;21768;48.562;13.414;2023-11-21T03:37:50;96797.19;;;7.33;72.57
35649;BME280;21768;48.562;13.414;2023-11-21T03:40:33;96802.97;;;7.32;72.55
35649;BME280;21768;48.562;13.414;2023-11-21T03:43:17;96798.72;;;7.31;72.62
35649;BME280;21768;48.562;13.414;2023-11-21T03:46:02;96796.31;;;7.33;72.69
35649;BME280;21768;48.562;13.414;2023-11-21T03:48:46;96798.06;;;7.34;72.83
35649;BME280;21768;48.562;13.414;2023-11-21T03:51:30;96794.78;;;7.35;72.69
35649;BME280;21768;48.562;13.414;2023-11-21T03:54:14;96796.53;;;7.36;72.88
35649;BME280;21768;48.562;13.414;2023-11-21T03:56:58;96799.34;;;7.40;72.92
35649;BME280;21768;48.562;13.414;2023-11-21T03:59:43;96795.38;;;7.44;72.95
35649;BME280;21768;48.562;13.414;2023-11-21T04:02:27;96795.03;;;7.51;72.76
35649;BME280;21768;48.562;13.414;2023-11-21T04:05:11;96804.19;;;7.50;72.85
35649;BME280;21768;48.562;13.414;2023-11-21T04:07:55;96807.56;;;7.51;72.82
35649;BME280;21768;48.562;13.414;2023-11-21T04:10:39;96811.28;;;7.56;72.87
35649;BME280;21768;48.562;13.414;2023-11-21T04:13:23;96799.91;;;7.61;72.85
35649;BME280;21768;48.562;13.414;2023-11-21T04:16:08;96802.72;;;7.66;72.74
35649;BME280;21768;48.562;13.414;2023-11-21T04:18:52;96790.16;;;7.66;72.71
35649;BME280;21768;48.562;13.414;2023-11-21T04:21:36;96785.59;;;7.60;73.05
35649;BME280;21768;48.562;13.414;2023-11-21T04:24:20;96791.41;;;7.59;72.84
35649;BME280;21768;48.562;13.414;2023-11-21T04:27:04;96785.59;;;7.60;72.84
35649;BME280;21768;48.562;13.414;2023-11-21T04:29:48;96788.31;;;7.63;72.97
35649;BME280;21768;48.562;13.414;2023-11-21T04:32:33;96786.59;;;7.62;73.03
35649;BME280;21768;48.562;13.414;2023-11-21T04:35:17;96785.91;;;7.65;73.08
35649;BME280;21768;48.562;13.414;2023-11-21T04:38:01;96788.53;;;7.66;73.06
35649;BME280;21768;48.562;13.414;2023-11-21T04:40:45;96795.25;;;7.67;73.10
35649;BME280;21768;48.562;13.414;2023-11-21T04:43:29;96790.25;;;7.67;73.04
35649;BME280;21768;48.562;13.414;2023-11-21T04:46:13;96798.75;;;7.69;73.11
35649;BME280;21768;48.562;13.414;2023-11-21T04:48:58;96786.41;;;7.72;72.92
35649;BME280;21768;48.562;13.414;2023-11-21T04:51:42;96795.66;;;7.73;72.96
35649;BME280;21768;48.562;13.414;2023-11-21T04:54:26;96793.16;;;7.73;73.13
35649;BME280;21768;48.562;13.414;2023-11-21T04:57:09;96793.38;;;7.76;73.20
35649;BME280;21768;48.562;13.414;2023-11-21T04:59:54;96799.16;;;7.75;73.21
35649;BME280;21768;48.562;13.414;2023-11-21T05:02:39;96793.78;;;7.82;73.11
35649;BME280;21768;48.562;13.414;2023-11-21T05:05:23;96799.75;;;7.84;72.97
35649;BME280;21768;48.562;13.414;2023-11-21T05:08:07;96799.56;;;7.81;73.14
35649;BME280;21768;48.562;13.414;2023-11-21T05:10:52;96802.84;;;7.80;72.93
35649;BME280;21768;48.562;13.414;2023-11-21T05:13:37;96795.41;;;7.82;73.13
35649;BME280;21768;48.562;13.414;2023-11-21T05:16:21;96801.09;;;7.79;73.25
35649;BME280;21768;48.562;13.414;2023-11-21T05:19:05;96800.22;;;7.79;73.34
35649;BME280;21768;48.562;13.414;2023-11-21T05:21:50;96796.06;;;7.79;73.28
35649;BME280;21768;48.562;13.414;2023-11-21T05:24:34;96809.59;;;7.81;73.30
35649;BME280;21768;48.562;13.414;2023-11-21T05:27:19;96814.81;;;7.84;73.19
35649;BME280;21768;48.562;13.414;2023-11-21T05:30:04;96802.47;;;7.88;73.37
35649;BME280;21768;48.562;13.414;2023-11-21T05:32:55;96800.16;;;7.91;73.33
35649;BME280;21768;48.562;13.414;2023-11-21T05:35:39;96798.44;;;7.90;73.43
35649;BME280;21768;48.562;13.414;2023-11-21T05:38:23;96794.19;;;7.89;73.36
35649;BME280;21768;48.562;13.414;2023-11-21T05:41:07;96795.16;;;7.91;73.33
35649;BME280;21768;48.562;13.414;2023-11-21T05:43:54;96802.69;;;7.91;73.46
35649;BME280;21768;48.562;13.414;2023-11-21T05:46:38;96798.53;;;7.91;73.28
35649;BME280;21768;48.562;13.414;2023-11-21T05:49:23;96805.09;;;7.89;73.46
35649;BME280;21768;48.562;13.414;2023-11-21T05:52:10;96806.72;;;7.89;73.59
35649;BME280;21768;48.562;13.414;2023-11-21T05:54:54;96816.78;;;7.89;73.66
35649;BME280;21768;48.562;13.414;2023-11-21T05:57:39;96823.72;;;7.93;73.56
35649;BME280;21768;48.562;13.414;2023-11-21T06:00:23;96819.09;;;7.99;73.52
35649;BME280;21768;48.562;13.414;2023-11-21T06:03:09;96815.03;;;8.01;73.44
35649;BME280;21768;48.562;13.414;2023-11-21T06:05:53;96816.88;;;8.03;73.24
35649;BME280;21768;48.562;13.414;2023-11-21T06:08:37;96820.06;;;8.01;73.60
35649;BME280;21768;48.562;13.414;2023-11-21T06:11:21;96811.16;;;7.93;73.54
35649;BME280;21768;48.562;13.414;2023-11-21T06:14:05;96810.88;;;7.88;73.55
35649;BME280;21768;48.562;13.414;2023-11-21T06:16:51;96813.41;;;7.88;73.52
35649;BME280;21768;48.562;13.414;2023-11-21T06:19:36;96813.28;;;7.87;74.11
35649;BME280;21768;48.562;13.414;2023-11-21T06:22:20;96821.38;;;7.82;73.82
35649;BME280;21768;48.562;13.414;2023-11-21T06:25:05;96820.63;;;7.83;73.93
35649;BME280;21768;48.562;13.414;2023-11-21T06:27:52;96812.31;;;7.84;73.77
35649;BME280;21768;48.562;13.414;2023-11-21T06:30:37;96824.88;;;7.84;73.83
35649;BME280;21768;48.562;13.414;2023-11-21T06:33:22;96821.81;;;7.89;74.10
35649;BME280;21768;48.562;13.414;2023-11-21T06:36:06;96817.25;;;7.96;73.82
35649;BME280;21768;48.562;13.414;2023-11-21T06:38:50;96825.19;;;8.02;73.74
35649;BME280;21768;48.562;13.414;2023-11-21T06:41:34;96831.09;;;8.03;73.85
35649;BME280;21768;48.562;13.414;2023-11-21T06:44:18;96835.44;;;8.05;73.85
35649;BME280;21768;48.562;13.414;2023-11-21T06:47:04;96838.25;;;8.10;73.68
35649;BME280;21768;48.562;13.414;2023-11-21T06:49:48;96841.19;;;8.16;73.68
35649;BME280;21768;48.562;13.414;2023-11-21T06:52:32;96842.53;;;8.24;73.70
35649;BME280;21768;48.562;13.414;2023-11-21T06:55:16;96848.72;;;8.29;73.79
35649;BME280;21768;48.562;13.414;2023-11-21T06:58:00;96859.75;;;8.31;73.73
35649;BME280;21768;48.562;13.414;2023-11-21T07:00:44;96863.78;;;8.29;73.88
35649;BME280;21768;48.562;13.414;2023-11-21T07:03:30;96859.88;;;8.33;73.90
35649;BME280;21768;48.562;13.414;2023-11-21T07:06:14;96860.94;;;8.36;73.77
35649;BME280;21768;48.562;13.414;2023-11-21T07:08:58;96867.13;;;8.41;73.71
35649;BME280;21768;48.562;13.414;2023-11-21T07:11:43;96869.94;;;8.46;73.54
35649;BME280;21768;48.562;13.414;2023-11-21T07:14:26;96871.78;;;8.48;73.61
35649;BME280;21768;48.562;13.414;2023-11-21T07:17:11;96874.97;;;8.46;73.52
35649;BME280;21768;48.562;13.414;2023-11-21T07:19:55;96873.50;;;8.49;73.59
35649;BME280;21768;48.562;13.414;2023-11-21T07:22:40;96871.41;;;8.56;73.53
35649;BME280;21768;48.562;13.414;2023-11-21T07:25:24;96872.66;;;8.62;73.40
35649;BME280;21768;48.562;13.414;2023-11-21T07:28:08;96885.44;;;8.65;73.42
35649;BME280;21768;48.562;13.414;2023-11-21T07:30:52;96881.84;;;8.62;73.47
35649;BME280;21768;48.562;13.414;2023-11-21T07:33:37;96889.59;;;8.65;73.52
35649;BME280;21768;48.562;13.414;2023-11-21T07:36:21;96883.97;;;8.69;73.49
35649;BME280;21768;48.562;13.414;2023-11-21T07:39:05;96882.13;;;8.79;73.41
35649;BME280;21768;48.562;13.414;2023-11-21T07:41:50;96879.34;;;8.88;73.42
35649;BME280;21768;48.562;13.414;2023-11-21T07:44:34;96884.72;;;8.94;73.32
35649;BME280;21768;48.562;13.414;2023-11-21T07:47:18;96883.06;;;8.95;73.33
35649;BME280;21768;48.562;13.414;2023-11-21T07:50:03;96883.94;;;8.95;73.42
35649;BME280;21768;48.562;13.414;2023-11-21T07:52:47;96888.41;;;8.99;73.38
35649;BME280;21768;48.562;13.414;2023-11-21T07:55:31;96891.97;;;9.03;73.44
35649;BME280;21768;48.562;13.414;2023-11-21T07:58:16;96893.72;;;9.04;73.37
35649;BME280;21768;48.562;13.414;2023-11-21T08:01:00;96894.59;;;9.04;73.33
35649;BME280;21768;48.562;13.414;2023-11-21T08:03:44;96891.50;;;9.08;73.37
35649;BME280;21768;48.562;13.414;2023-11-21T08:06:29;96896.34;;;9.05;73.39
35649;BME280;21768;48.562;13.414;2023-11-21T08:09:16;96893.06;;;9.06;73.44
35649;BME280;21768;48.562;13.414;2023-11-21T08:12:00;96891.50;;;9.08;73.46
35649;BME280;21768;48.562;13.414;2023-11-21T08:14:46;96894.41;;;9.14;73.24
35649;BME280;21768;48.562;13.414;2023-11-21T08:17:30;96895.19;;;9.13;73.39
35649;BME280;21768;48.562;13.414;2023-11-21T08:20:16;96893.69;;;9.17;73.27
35649;BME280;21768;48.562;13.414;2023-11-21T08:23:01;96888.09;;;9.21;73.28
35649;BME280;21768;48.562;13.414;2023-11-21T08:25:46;96892.13;;;9.32;73.10
35649;BME280;21768;48.562;13.414;2023-11-21T08:28:30;96892.78;;;9.43;73.05
35649;BME280;21768;48.562;13.414;2023-11-21T08:31:14;96887.34;;;9.50;72.78
35649;BME280;21768;48.562;13.414;2023-11-21T08:33:58;96880.44;;;9.61;73.08
35649;BME280;21768;48.562;13.414;2023-11-21T08:36:45;96889.59;;;9.73;72.74
35649;BME280;21768;48.562;13.414;2023-11-21T08:39:29;96894.22;;;9.80;72.59
35649;BME280;21768;48.562;13.414;2023-11-21T08:42:14;96890.66;;;9.92;72.40
35649;BME280;21768;48.562;13.414;2023-11-21T08:44:58;96899.91;;;10.06;72.11
35649;BME280;21768;48.562;13.414;2023-11-21T08:47:42;96896.34;;;10.17;71.94
35649;BME280;21768;48.562;13.414;2023-11-21T08:50:27;96892.94;;;10.30;71.65
35649;BME280;21768;48.562;13.414;2023-11-21T08:53:11;96899.22;;;10.36;71.60
35649;BME280;21768;48.562;13.414;2023-11-21T08:55:55;96896.22;;;10.43;71.54
35649;BME280;21768;48.562;13.414;2023-11-21T08:58:39;96898.84;;;10.45;71.49
35649;BME280;21768;48.562;13.414;2023-11-21T09:01:23;96905.91;;;10.50;71.39
35649;BME280;21768;48.562;13.414;2023-11-21T09:04:08;96904.34;;;10.52;71.32
35649;BME280;21768;48.562;13.414;2023-11-21T09:06:52;96911.72;;;10.64;70.88
35649;BME280;21768;48.562;13.414;2023-11-21T09:09:36;96916.41;;;10.73;70.75
35649;BME280;21768;48.562;13.414;2023-11-21T09:12:20;96916.50;;;10.74;70.76
35649;BME280;21768;48.562;13.414;2023-11-21T09:15:05;96921.63;;;10.76;70.65
35649;BME280;21768;48.562;13.414;2023-11-21T09:17:49;96926.84;;;10.79;70.64
35649;BME280;21768;48.562;13.414;2023-11-21T09:20:33;96925.72;;;10.74;70.67
35649;BME280;21768;48.562;13.414;2023-11-21T09:23:17;96917.63;;;10.65;70.77
35649;BME280;21768;48.562;13.414;2023-11-21T09:26:01;96920.00;;;10.62;70.88
35649;BME280;21768;48.562;13.414;2023-11-21T09:28:45;96924.25;;;10.63;70.98
35649;BME280;21768;48.562;13.414;2023-11-21T09:31:32;96926.84;;;10.64;70.85
35649;BME280;21768;48.562;13.414;2023-11-21T09:34:17;96923.47;;;10.64;70.84
35649;BME280;21768;48.562;13.414;2023-11-21T09:37:02;96931.56;;;10.58;70.99
35649;BME280;21768;48.562;13.414;2023-11-21T09:39:49;96932.25;;;10.55;71.21
35649;BME280;21768;48.562;13.414;2023-11-21T09:42:39;96935.75;;;10.57;70.98
35649;BME280;21768;48.562;13.414;2023-11-21T09:45:34;96935.75;;;10.57;70.80
35649;BME280;21768;48.562;13.414;2023-11-21T09:48:19;96938.69;;;10.50;70.50
35649;BME280;21768;48.562;13.414;2023-11-21T09:51:04;96922.34;;;10.59;70.63
35649;BME280;21768;48.562;13.414;2023-11-21T09:53:50;96936.41;;;10.70;70.42
35649;BME280;21768;48.562;13.414;2023-11-21T09:56:37;96931.69;;;10.90;70.36
35649;BME280;21768;48.562;13.414;2023-11-21T09:59:22;96936.22;;;11.11;70.07
35649;BME280;21768;48.562;13.414;2023-11-21T10:02:07;96925.56;;;11.16;69.66
35649;BME280;21768;48.562;13.414;2023-11-21T10:04:53;96933.44;;;11.06;69.92
35649;BME280;21768;48.562;13.414;2023-11-21T10:07:37;96929.63;;;10.98;70.15
35649;BME280;21768;48.562;13.414;2023-11-21T10:10:24;96925.34;;;10.97;70.13
35649;BME280;21768;48.562;13.414;2023-11-21T10:13:09;96929.44;;;10.95;70.06
35649;BME280;21768;48.562;13.414;2023-11-21T10:15:54;96932.56;;;10.91;70.00
35649;BME280;21768;48.562;13.414;2023-11-21T10:18:39;96931.56;;;10.87;69.87
35649;BME280;21768;48.562;13.414;2023-11-21T10:21:24;96934.13;;;10.89;69.92
35649;BME280;21768;48.562;13.414;2023-11-21T10:24:09;96929.09;;;10.89;69.78
35649;BME280;21768;48.562;13.414;2023-11-21T10:26:52;96932.06;;;10.82;69.73
35649;BME280;21768;48.562;13.414;2023-11-21T10:29:39;96920.59;;;10.87;69.92
35649;BME280;21768;48.562;13.414;2023-11-21T10:32:28;96930.47;;;10.99;69.51
35649;BME280;21768;48.562;13.414;2023-11-21T10:35:12;96921.50;;;11.04;68.98
35649;BME280;21768;48.562;13.414;2023-11-21T10:38:02;96924.91;;;11.04;68.84
35649;BME280;21768;48.562;13.414;2023-11-21T10:40:46;96926.81;;;11.08;68.45
35649;BME280;21768;48.562;13.414;2023-11-21T10:43:31;96930.38;;;11.12;68.88
35649;BME280;21768;48.562;13.414;2023-11-21T10:46:15;96930.00;;;11.20;69.09
35649;BME280;21768;48.562;13.414;2023-11-21T10:48:59;96934.72;;;11.14;68.15
35649;BME280;21768;48.562;13.414;2023-11-21T10:51:44;96940.00;;;11.19;68.16
35649;BME280;21768;48.562;13.414;2023-11-21T10:54:27;96931.81;;;11.23;67.74
35649;BME280;21768;48.562;13.414;2023-11-21T10:57:13;96924.75;;;11.32;67.88
35649;BME280;21768;48.562;13.414;2023-11-21T11:00:01;96926.34;;;11.46;67.16
35649;BME280;21768;48.562;13.414;2023-11-21T11:02:50;96913.91;;;11.66;66.62
35649;BME280;21768;48.562;13.414;2023-11-21T11:05:35;96915.97;;;11.73;66.38
35649;BME280;21768;48.562;13.414;2023-11-21T11:08:21;96915.47;;;11.78;66.51
35649;BME280;21768;48.562;13.414;2023-11-21T11:11:10;96913.88;;;11.80;66.54
35649;BME280;21768;48.562;13.414;2023-11-21T11:13:55;96904.66;;;11.81;66.59
35649;BME280;21768;48.562;13.414;2023-11-21T11:16:41;96905.34;;;11.78;66.54
35649;BME280;21768;48.562;13.414;2023-11-21T11:19:26;96901.25;;;11.80;66.47
35649;BME280;21768;48.562;13.414;2023-11-21T11:22:37;96912.94;;;11.78;66.60
35649;BME280;21768;48.562;13.414;2023-11-21T11:29:18;96897.56;;;11.75;66.79
35649;BME280;21768;48.562;13.414;2023-11-21T11:34:42;96896.97;;;11.79;66.61
35649;BME280;21768;48.562;13.414;2023-11-21T11:37:28;96899.84;;;11.85;66.25
35649;BME280;21768;48.562;13.414;2023-11-21T11:40:12;96897.31;;;11.85;66.11
35649;BME280;21768;48.562;13.414;2023-11-21T11:42:57;96892.88;;;11.81;66.18
35649;BME280;21768;48.562;13.414;2023-11-21T11:45:43;96893.50;;;11.77;66.30
35649;BME280;21768;48.562;13.414;2023-11-21T11:48:27;96898.28;;;11.73;66.16
35649;BME280;21768;48.562;13.414;2023-11-21T11:51:13;96897.34;;;11.71;66.32
35649;BME280;21768;48.562;13.414;2023-11-21T11:54:05;96896.63;;;11.73;66.25
35649;BME280;21768;48.562;13.414;2023-11-21T11:56:52;96901.50;;;11.70;66.53
35649;BME280;21768;48.562;13.414;2023-11-21T12:00:56;96895.25;;;11.78;66.39
35649;BME280;21768;48.562;13.414;2023-11-21T12:03:09;96897.16;;;11.82;65.74
35649;BME280;21768;48.562;13.414;2023-11-21T12:05:53;96889.41;;;11.79;65.66
35649;BME280;21768;48.562;13.414;2023-11-21T12:08:41;96903.34;;;11.73;65.56
35649;BME280;21768;48.562;13.414;2023-11-21T12:11:32;96895.22;;;11.62;64.98
35649;BME280;21768;48.562;13.414;2023-11-21T12:14:16;96896.72;;;11.58;65.04
35649;BME280;21768;48.562;13.414;2023-11-21T12:17:01;96895.34;;;11.49;65.26
35649;BME280;21768;48.562;13.414;2023-11-21T12:19:48;96892.19;;;11.53;65.43
35649;BME280;21768;48.562;13.414;2023-11-21T12:22:36;96886.44;;;11.55;64.97
35649;BME280;21768;48.562;13.414;2023-11-21T12:25:21;96889.66;;;11.53;64.77
35649;BME280;21768;48.562;13.414;2023-11-21T12:28:06;96895.84;;;11.58;64.82
35649;BME280;21768;48.562;13.414;2023-11-21T12:30:49;96890.78;;;11.58;64.84
35649;BME280;21768;48.562;13.414;2023-11-21T12:33:33;96894.88;;;11.56;65.04
35649;BME280;21768;48.562;13.414;2023-11-21T12:36:18;96899.69;;;11.51;64.76
35649;BME280;21768;48.562;13.414;2023-11-21T12:39:03;96892.56;;;11.44;64.85
35649;BME280;21768;48.562;13.414;2023-11-21T12:41:47;96901.09;;;11.46;64.92
35649;BME280;21768;48.562;13.414;2023-11-21T12:44:31;96898.91;;;11.52;64.91
35649;BME280;21768;48.562;13.414;2023-11-21T12:47:17;96893.94;;;11.54;65.31
35649;BME280;21768;48.562;13.414;2023-11-21T12:50:02;96896.53;;;11.55;65.28
35649;BME280;21768;48.562;13.414;2023-11-21T12:52:47;96893.94;;;11.54;65.39
35649;BME280;21768;48.562;13.414;2023-11-21T12:55:32;96899.00;;;11.54;65.40
35649;BME280;21768;48.562;13.414;2023-11-21T12:58:16;96901.50;;;11.54;65.55
35649;BME280;21768;48.562;13.414;2023-11-21T13:01:00;96893.94;;;11.54;65.43
35649;BME280;21768;48.562;13.414;2023-11-21T13:03:48;96895.59;;;11.53;65.14
35649;BME280;21768;48.562;13.414;2023-11-21T13:06:32;96894.81;;;11.54;65.16
35649;BME280;21768;48.562;13.414;2023-11-21T13:09:22;96899.78;;;11.53;65.26
35649;BME280;21768;48.562;13.414;2023-11-21T13:12:06;96901.50;;;11.54;65.41
35649;BME280;21768;48.562;13.414;2023-11-21T13:14:52;96908.94;;;11.51;65.28
35649;BME280;21768;48.562;13.414;2023-11-21T13:17:36;96902.84;;;11.47;65.08
35649;BME280;21768;48.562;13.414;2023-11-21T13:20:20;96900.31;;;11.47;65.09
35649;BME280;21768;48.562;13.414;2023-11-21T13:23:08;96906.06;;;11.45;65.17
35649;BME280;21768;48.562;13.414;2023-11-21T13:25:53;96910.94;;;11.42;65.33
35649;BME280;21768;48.562;13.414;2023-11-21T13:28:37;96915.03;;;11.40;65.17
35649;BME280;21768;48.562;13.414;2023-11-21T13:31:21;96916.31;;;11.32;65.16
35649;BME280;21768;48.562;13.414;2023-11-21T13:34:09;96911.00;;;11.27;65.39
35649;BME280;21768;48.562;13.414;2023-11-21T13:36:58;96919.47;;;11.28;65.56
35649;BME280;21768;48.562;13.414;2023-11-21T13:39:44;96919.63;;;11.31;65.65
35649;BME280;21768;48.562;13.414;2023-11-21T13:42:33;96925.88;;;11.37;65.68
35649;BME280;21768;48.562;13.414;2023-11-21T13:45:17;96923.28;;;11.36;65.50
35649;BME280;21768;48.562;13.414;2023-11-21T13:48:05;96930.69;;;11.33;65.45
35649;BME280;21768;48.562;13.414;2023-11-21T13:50:53;96932.09;;;11.28;65.56
35649;BME280;21768;48.562;13.414;2023-11-21T13:53:46;96933.81;;;11.29;65.58
35649;BME280;21768;48.562;13.414;2023-11-21T13:56:36;96936.34;;;11.29;65.76
35649;BME280;21768;48.562;13.414;2023-11-21T13:59:20;96936.34;;;11.29;65.77
35649;BME280;21768;48.562;13.414;2023-11-21T14:02:07;96942.63;;;11.20;65.81
35649;BME280;21768;48.562;13.414;2023-11-21T14:05:04;96939.16;;;11.18;65.88
35649;BME280;21768;48.562;13.414;2023-11-21T14:07:53;96938.09;;;11.15;65.99
35649;BME280;21768;48.562;13.414;2023-11-21T14:10:37;96943.72;;;11.09;65.98
35649;BME280;21768;48.562;13.414;2023-11-21T14:13:26;96955.47;;;11.09;66.17
35649;BME280;21768;48.562;13.414;2023-11-21T14:16:11;96956.94;;;11.05;66.16
35649;BME280;21768;48.562;13.414;2023-11-21T14:18:55;96955.97;;;11.03;66.46
35649;BME280;21768;48.562;13.414;2023-11-21T14:21:46;96962.69;;;11.03;66.38
35649;BME280;21768;48.562;13.414;2023-11-21T14:24:30;96964.94;;;10.98;66.32
35649;BME280;21768;48.562;13.414;2023-11-21T14:27:15;96962.16;;;10.94;66.47
35649;BME280;21768;48.562;13.414;2023-11-21T14:29:59;96972.63;;;10.85;66.48
35649;BME280;21768;48.562;13.414;2023-11-21T14:32:43;96977.50;;;10.82;66.59
35649;BME280;21768;48.562;13.414;2023-11-21T14:35:27;96970.63;;;10.79;66.78